Time;durP1;ratioP1;P1;durP2;ratioP2;P2;SDS_P1;SDS_P2;PMS_P1;PMS_P2;Temp;Humidity;BMP_temperature;BMP_pressure;BME280_temperature;BME280_humidity;BME280_pressure;Samples;Min_cycle;Max_cycle;Signal;HPM_P1;HPM_P2
2023/09/18 00:00:51;;;;;;;11.60;11.10;;;;;;;;;;5109459;28;20432;-66
2023/09/18 00:03:19;;;;;;;11.23;10.73;;;;;;;;;;5108086;28;20027;-65
2023/09/18 00:05:45;;;;;;;11.80;11.30;;;;;;;;;;5101828;28;20546;-65
2023/09/18 00:08:10;;;;;;;11.18;10.68;;;;;;;;;;5102870;28;20170;-65
2023/09/18 00:10:35;;;;;;;11.50;11.00;;;;;;;;;;5101474;28;20027;-65
2023/09/18 00:13:01;;;;;;;11.20;10.70;;;;;;;;;;5100995;28;20039;-66
2023/09/18 00:15:26;;;;;;;11.48;10.98;;;;;;;;;;5101678;28;20019;-65
2023/09/18 00:17:52;;;;;;;11.48;10.98;;;;;;;;;;5102037;28;20543;-65
2023/09/18 00:20:17;;;;;;;11.27;10.77;;;;;;;;;;5104605;28;20045;-65
2023/09/18 00:22:43;;;;;;;10.88;10.38;;;;;;;;;;5100921;28;20561;-65
2023/09/18 00:25:08;;;;;;;11.27;10.77;;;;;;;;;;5103409;28;20362;-66
2023/09/18 00:27:35;;;;;;;11.15;10.65;;;;;;;;;;5106918;28;20027;-66
2023/09/18 00:30:01;;;;;;;11.32;10.82;;;;;;;;;;5103238;28;20108;-65
2023/09/18 00:32:27;;;;;;;11.20;10.70;;;;;;;;;;5103250;28;20466;-65
2023/09/18 00:34:53;;;;;;;11.10;10.60;;;;;;;;;;5109294;28;20486;-66
2023/09/18 00:37:19;;;;;;;11.18;10.68;;;;;;;;;;5103827;28;20028;-66
2023/09/18 00:39:44;;;;;;;11.30;10.80;;;;;;;;;;5103795;28;20034;-67
2023/09/18 00:42:13;;;;;;;11.35;10.85;;;;;;;;;;5110171;27;20075;-66
2023/09/18 00:44:38;;;;;;;11.27;10.77;;;;;;;;;;5113283;27;20020;-66
2023/09/18 00:47:04;;;;;;;11.27;10.77;;;;;;;;;;5108118;27;20016;-66
2023/09/18 00:49:30;;;;;;;11.63;11.13;;;;;;;;;;5111389;28;20115;-66
2023/09/18 00:51:56;;;;;;;11.40;10.90;;;;;;;;;;5106057;28;20015;-65
2023/09/18 00:54:21;;;;;;;11.13;10.63;;;;;;;;;;5105465;28;20069;-65
2023/09/18 00:56:48;;;;;;;11.43;10.93;;;;;;;;;;5105400;28;20084;-65
2023/09/18 00:59:13;;;;;;;11.20;10.70;;;;;;;;;;5108912;28;20023;-65
2023/09/18 01:01:41;;;;;;;11.55;11.05;;;;;;;;;;5090562;27;20031;-65
2023/09/18 01:04:07;;;;;;;11.50;11.00;;;;;;;;;;5106910;27;20073;-65
2023/09/18 01:06:32;;;;;;;11.27;10.77;;;;;;;;;;5105604;28;20088;-65
2023/09/18 01:08:59;;;;;;;11.23;10.73;;;;;;;;;;5111557;28;20424;-66
2023/09/18 01:11:31;;;;;;;11.82;11.30;;;;;;;;;;5106009;27;20032;-65
2023/09/18 01:13:59;;;;;;;11.10;10.60;;;;;;;;;;5108643;27;20020;-65
2023/09/18 01:16:27;;;;;;;11.50;11.00;;;;;;;;;;5111004;28;20099;-66
2023/09/18 01:18:52;;;;;;;11.50;11.00;;;;;;;;;;5109006;28;20093;-66
2023/09/18 01:21:20;;;;;;;11.63;11.13;;;;;;;;;;5107071;28;20020;-66
2023/09/18 01:23:46;;;;;;;11.10;10.60;;;;;;;;;;5108307;27;20015;-65
2023/09/18 01:26:11;;;;;;;11.38;10.88;;;;;;;;;;5102802;27;20020;-66
2023/09/18 01:28:37;;;;;;;11.40;10.90;;;;;;;;;;5106608;27;20039;-66
2023/09/18 01:31:02;;;;;;;10.90;10.40;;;;;;;;;;5091246;28;20383;-67
2023/09/18 01:33:28;;;;;;;11.40;10.90;;;;;;;;;;5105931;27;20478;-67
2023/09/18 01:35:55;;;;;;;10.93;10.43;;;;;;;;;;5089966;28;20046;-66
2023/09/18 01:38:22;;;;;;;11.65;11.15;;;;;;;;;;5109146;28;20023;-67
2023/09/18 01:40:47;;;;;;;11.48;10.98;;;;;;;;;;5106682;27;20378;-65
2023/09/18 01:43:13;;;;;;;11.23;10.73;;;;;;;;;;5107345;28;20019;-65
2023/09/18 01:45:38;;;;;;;11.52;11.02;;;;;;;;;;5107332;27;20028;-65
2023/09/18 01:48:05;;;;;;;11.07;10.57;;;;;;;;;;5110808;28;20433;-66
2023/09/18 01:50:31;;;;;;;11.70;11.20;;;;;;;;;;5107568;28;20026;-65
2023/09/18 01:52:58;;;;;;;11.20;10.70;;;;;;;;;;5103029;27;20019;-65
2023/09/18 01:55:23;;;;;;;11.68;11.18;;;;;;;;;;5102329;28;20110;-65
2023/09/18 01:57:49;;;;;;;11.27;10.77;;;;;;;;;;5108595;27;20116;-66
2023/09/18 02:00:14;;;;;;;11.32;10.82;;;;;;;;;;5106121;27;20106;-65
2023/09/18 02:02:40;;;;;;;10.90;10.40;;;;;;;;;;5108921;27;20081;-66
2023/09/18 02:05:05;;;;;;;10.82;10.32;;;;;;;;;;5105937;28;20487;-66
2023/09/18 02:07:31;;;;;;;11.57;11.07;;;;;;;;;;5107894;28;20016;-65
2023/09/18 02:09:57;;;;;;;11.70;11.20;;;;;;;;;;5108689;27;20023;-66
2023/09/18 02:12:22;;;;;;;11.30;10.80;;;;;;;;;;5107867;27;20058;-67
2023/09/18 02:14:47;;;;;;;11.23;10.73;;;;;;;;;;5110689;28;20015;-66
2023/09/18 02:17:13;;;;;;;10.90;10.40;;;;;;;;;;5112295;28;20448;-65
2023/09/18 02:19:38;;;;;;;11.00;10.50;;;;;;;;;;5107790;28;20545;-66
2023/09/18 02:22:03;;;;;;;10.85;10.35;;;;;;;;;;5111395;27;20024;-66
2023/09/18 02:24:29;;;;;;;11.10;10.60;;;;;;;;;;5102335;28;20019;-67
2023/09/18 02:26:54;;;;;;;10.70;10.20;;;;;;;;;;5106674;28;20032;-66
2023/09/18 02:29:20;;;;;;;11.00;10.50;;;;;;;;;;5108688;28;20483;-65
2023/09/18 02:31:46;;;;;;;11.75;11.23;;;;;;;;;;5109320;27;20428;-66
2023/09/18 02:34:11;;;;;;;10.93;10.43;;;;;;;;;;5108684;27;20019;-66
2023/09/18 02:36:36;;;;;;;11.30;10.80;;;;;;;;;;5105940;28;20019;-66
2023/09/18 02:39:02;;;;;;;10.98;10.48;;;;;;;;;;5108525;28;20150;-65
2023/09/18 02:41:27;;;;;;;10.95;10.45;;;;;;;;;;5112580;27;20023;-67
2023/09/18 02:43:53;;;;;;;10.98;10.48;;;;;;;;;;5108473;28;20076;-66
2023/09/18 02:46:18;;;;;;;11.40;10.90;;;;;;;;;;5103614;28;20020;-65
2023/09/18 02:48:44;;;;;;;10.65;10.15;;;;;;;;;;5109021;28;20025;-66
2023/09/18 02:51:09;;;;;;;10.80;10.30;;;;;;;;;;5108396;28;20015;-65
2023/09/18 02:53:34;;;;;;;11.50;11.00;;;;;;;;;;5105177;28;20028;-66
2023/09/18 02:56:00;;;;;;;11.20;10.70;;;;;;;;;;5108768;28;20032;-66
2023/09/18 02:58:28;;;;;;;10.85;10.35;;;;;;;;;;5109592;28;20016;-67
2023/09/18 03:00:53;;;;;;;11.32;10.82;;;;;;;;;;5105756;28;20028;-66
2023/09/18 03:03:19;;;;;;;11.10;10.60;;;;;;;;;;5108885;28;20027;-67
2023/09/18 03:05:44;;;;;;;11.70;11.18;;;;;;;;;;5099904;28;20104;-66
2023/09/18 03:08:10;;;;;;;11.25;10.75;;;;;;;;;;5102546;28;20433;-66
2023/09/18 03:10:37;;;;;;;10.80;10.30;;;;;;;;;;5105577;27;20040;-66
2023/09/18 03:13:03;;;;;;;11.00;10.50;;;;;;;;;;5108390;28;20509;-66
2023/09/18 03:15:28;;;;;;;11.45;10.95;;;;;;;;;;5104410;28;20066;-67
2023/09/18 03:17:54;;;;;;;11.55;11.05;;;;;;;;;;5107586;28;20038;-67
2023/09/18 03:20:22;;;;;;;11.35;10.85;;;;;;;;;;5105407;28;20031;-66
2023/09/18 03:22:47;;;;;;;11.32;10.82;;;;;;;;;;5107834;28;20053;-66
2023/09/18 03:25:12;;;;;;;10.95;10.45;;;;;;;;;;5107155;28;20023;-66
2023/09/18 03:27:38;;;;;;;10.70;10.20;;;;;;;;;;5088198;28;20035;-66
2023/09/18 03:30:04;;;;;;;11.05;10.55;;;;;;;;;;5087866;28;20019;-66
2023/09/18 03:32:29;;;;;;;11.02;10.52;;;;;;;;;;5108504;28;20467;-66
2023/09/18 03:34:55;;;;;;;11.07;10.57;;;;;;;;;;5106966;28;20110;-66
2023/09/18 03:37:20;;;;;;;11.10;10.60;;;;;;;;;;5102661;27;20498;-67
2023/09/18 03:39:45;;;;;;;11.40;10.90;;;;;;;;;;5106939;28;20039;-66
2023/09/18 03:42:11;;;;;;;10.63;10.13;;;;;;;;;;5103036;28;20439;-66
2023/09/18 03:44:36;;;;;;;10.82;10.32;;;;;;;;;;5104463;28;20023;-66
2023/09/18 03:47:03;;;;;;;10.93;10.43;;;;;;;;;;5107972;28;20027;-66
2023/09/18 03:49:29;;;;;;;10.95;10.45;;;;;;;;;;5105438;28;20114;-67
2023/09/18 03:51:54;;;;;;;11.32;10.82;;;;;;;;;;5108046;28;20138;-66
2023/09/18 03:54:19;;;;;;;11.80;11.20;;;;;;;;;;5106090;28;20043;-66
2023/09/18 03:56:46;;;;;;;11.18;10.68;;;;;;;;;;5108414;28;20085;-67
2023/09/18 03:59:11;;;;;;;11.02;10.52;;;;;;;;;;5105489;28;20034;-66
2023/09/18 04:01:36;;;;;;;10.80;10.30;;;;;;;;;;5107829;28;20023;-67
2023/09/18 04:04:02;;;;;;;11.38;10.88;;;;;;;;;;5106101;28;20168;-67
2023/09/18 04:06:35;;;;;;;12.02;11.43;;;;;;;;;;5100021;28;20084;-67
2023/09/18 04:09:00;;;;;;;11.60;11.10;;;;;;;;;;5104649;28;20039;-66
2023/09/18 04:11:26;;;;;;;11.32;10.82;;;;;;;;;;5103237;28;20059;-66
2023/09/18 04:13:51;;;;;;;11.55;11.05;;;;;;;;;;5108683;28;20015;-67
2023/09/18 04:16:17;;;;;;;11.48;10.98;;;;;;;;;;5104573;28;20094;-66
2023/09/18 04:18:43;;;;;;;10.80;10.30;;;;;;;;;;5100810;28;20494;-67
2023/09/18 04:21:09;;;;;;;11.10;10.60;;;;;;;;;;5104735;28;20023;-66
2023/09/18 04:23:36;;;;;;;11.30;10.80;;;;;;;;;;5108886;28;20445;-66
2023/09/18 04:26:02;;;;;;;11.38;10.88;;;;;;;;;;5103769;28;20024;-66
2023/09/18 04:28:27;;;;;;;11.50;11.00;;;;;;;;;;5104015;28;20069;-67
2023/09/18 04:30:52;;;;;;;11.30;10.80;;;;;;;;;;5101472;28;20498;-65
2023/09/18 04:33:18;;;;;;;11.73;11.23;;;;;;;;;;5104145;28;20099;-66
2023/09/18 04:35:43;;;;;;;11.55;11.05;;;;;;;;;;5104146;28;20059;-66
2023/09/18 04:38:10;;;;;;;11.63;11.13;;;;;;;;;;5099158;28;20020;-66
2023/09/18 04:40:36;;;;;;;11.48;10.98;;;;;;;;;;5106426;28;20062;-67
2023/09/18 04:43:04;;;;;;;11.98;11.48;;;;;;;;;;5101815;28;20505;-68
2023/09/18 04:45:30;;;;;;;11.95;11.45;;;;;;;;;;5102659;28;20024;-67
2023/09/18 04:47:56;;;;;;;12.00;11.50;;;;;;;;;;5086956;28;20020;-66
2023/09/18 04:50:22;;;;;;;11.55;11.05;;;;;;;;;;5102017;28;20110;-67
2023/09/18 04:52:50;;;;;;;11.73;11.23;;;;;;;;;;5086027;28;20035;-67
2023/09/18 04:55:16;;;;;;;12.00;11.50;;;;;;;;;;5104178;28;21393;-66
2023/09/18 04:57:41;;;;;;;11.82;11.32;;;;;;;;;;5106367;28;20023;-66
2023/09/18 05:00:12;;;;;;;11.85;11.35;;;;;;;;;;5112185;28;20039;-66
2023/09/18 05:02:38;;;;;;;11.75;11.25;;;;;;;;;;5102603;28;20020;-66
2023/09/18 05:05:04;;;;;;;11.85;11.35;;;;;;;;;;5104319;28;20091;-67
2023/09/18 05:07:29;;;;;;;11.82;11.32;;;;;;;;;;5099399;28;20039;-67
2023/09/18 05:09:54;;;;;;;11.85;11.35;;;;;;;;;;5099665;28;20015;-66
2023/09/18 05:12:19;;;;;;;12.15;11.65;;;;;;;;;;5104461;28;20020;-66
2023/09/18 05:14:45;;;;;;;12.03;11.53;;;;;;;;;;5101651;28;20028;-66
2023/09/18 05:17:13;;;;;;;11.90;11.40;;;;;;;;;;5104035;28;20296;-66
2023/09/18 05:19:39;;;;;;;12.00;11.50;;;;;;;;;;5099624;28;20283;-67
2023/09/18 05:22:04;;;;;;;12.20;11.70;;;;;;;;;;5106703;28;20019;-67
2023/09/18 05:24:29;;;;;;;12.10;11.60;;;;;;;;;;5104186;28;20487;-65
2023/09/18 05:26:55;;;;;;;12.05;11.55;;;;;;;;;;5098074;28;20292;-66
2023/09/18 05:29:20;;;;;;;12.07;11.57;;;;;;;;;;5108668;28;20043;-67
2023/09/18 05:31:46;;;;;;;12.05;11.55;;;;;;;;;;5103433;28;20024;-67
2023/09/18 05:34:11;;;;;;;12.00;11.50;;;;;;;;;;5106848;27;20095;-67
2023/09/18 05:36:37;;;;;;;11.98;11.48;;;;;;;;;;5101866;28;20019;-66
2023/09/18 05:39:03;;;;;;;11.88;11.38;;;;;;;;;;5106421;28;20022;-66
2023/09/18 05:41:28;;;;;;;11.95;11.45;;;;;;;;;;5091610;28;20016;-67
2023/09/18 05:43:54;;;;;;;12.25;11.75;;;;;;;;;;5106967;27;20551;-66
2023/09/18 05:46:19;;;;;;;12.07;11.57;;;;;;;;;;5099276;27;20081;-66
2023/09/18 05:48:45;;;;;;;12.10;11.60;;;;;;;;;;5110189;27;20015;-66
2023/09/18 05:51:10;;;;;;;11.85;11.35;;;;;;;;;;5103804;28;20023;-66
2023/09/18 05:53:37;;;;;;;11.80;11.30;;;;;;;;;;5113589;27;20046;-67
2023/09/18 05:56:03;;;;;;;11.93;11.43;;;;;;;;;;5109203;28;20036;-66
2023/09/18 05:58:31;;;;;;;12.38;11.82;;;;;;;;;;5085055;28;20030;-66
2023/09/18 06:00:58;;;;;;;12.18;11.68;;;;;;;;;;5105079;28;20027;-67
2023/09/18 06:03:23;;;;;;;12.20;11.70;;;;;;;;;;5106075;27;20027;-68
2023/09/18 06:05:48;;;;;;;12.40;11.90;;;;;;;;;;5086569;28;20423;-67
2023/09/18 06:08:14;;;;;;;12.27;11.77;;;;;;;;;;5107147;28;20046;-66
2023/09/18 06:10:39;;;;;;;11.97;11.47;;;;;;;;;;5084495;28;20035;-67
2023/09/18 06:13:05;;;;;;;12.27;11.77;;;;;;;;;;5105960;27;20275;-67
2023/09/18 06:15:31;;;;;;;12.27;11.77;;;;;;;;;;5109826;28;20024;-66
2023/09/18 06:17:57;;;;;;;12.57;11.98;;;;;;;;;;5100817;28;20023;-67
2023/09/18 06:20:22;;;;;;;12.13;11.63;;;;;;;;;;5108943;28;20446;-67
2023/09/18 06:22:47;;;;;;;12.27;11.77;;;;;;;;;;5102752;27;20020;-67
2023/09/18 06:25:14;;;;;;;12.17;11.67;;;;;;;;;;5106505;28;20082;-67
2023/09/18 06:27:39;;;;;;;12.25;11.75;;;;;;;;;;5104205;28;20080;-67
2023/09/18 06:30:05;;;;;;;12.53;11.93;;;;;;;;;;5106562;28;20111;-66
2023/09/18 06:32:31;;;;;;;12.25;11.75;;;;;;;;;;5107556;28;20270;-66
2023/09/18 06:34:57;;;;;;;12.48;11.90;;;;;;;;;;5086666;28;20730;-67
2023/09/18 06:37:23;;;;;;;12.38;11.88;;;;;;;;;;5107407;28;20051;-67
2023/09/18 06:39:48;;;;;;;12.20;11.70;;;;;;;;;;5103725;28;20454;-67
2023/09/18 06:42:13;;;;;;;12.23;11.73;;;;;;;;;;5105400;28;20039;-67
2023/09/18 06:44:39;;;;;;;12.17;11.67;;;;;;;;;;5102384;28;20735;-67
2023/09/18 06:47:04;;;;;;;12.23;11.73;;;;;;;;;;5106780;28;20026;-66
2023/09/18 06:49:30;;;;;;;12.40;11.87;;;;;;;;;;5110502;27;20027;-67
2023/09/18 06:51:58;;;;;;;12.20;11.70;;;;;;;;;;5105755;28;20743;-66
2023/09/18 06:54:23;;;;;;;12.68;12.07;;;;;;;;;;5103900;27;20058;-66
2023/09/18 06:56:48;;;;;;;12.48;11.93;;;;;;;;;;5106252;27;20063;-67
2023/09/18 06:59:13;;;;;;;12.57;11.97;;;;;;;;;;5105879;27;20039;-67
2023/09/18 07:01:41;;;;;;;12.17;11.67;;;;;;;;;;5103884;27;20063;-68
2023/09/18 07:04:07;;;;;;;12.13;11.63;;;;;;;;;;5107323;28;20062;-67
2023/09/18 07:06:32;;;;;;;12.43;11.90;;;;;;;;;;5085406;28;20435;-66
2023/09/18 07:08:59;;;;;;;12.70;12.10;;;;;;;;;;5110095;27;20260;-66
2023/09/18 07:11:24;;;;;;;12.40;11.90;;;;;;;;;;5105307;28;20015;-67
2023/09/18 07:13:50;;;;;;;11.95;11.45;;;;;;;;;;5105232;28;20027;-67
2023/09/18 07:16:15;;;;;;;12.20;11.70;;;;;;;;;;5104770;28;20016;-67
2023/09/18 07:18:41;;;;;;;12.63;12.02;;;;;;;;;;5105712;28;20390;-65
2023/09/18 07:21:06;;;;;;;12.37;11.87;;;;;;;;;;5103568;28;20120;-68
2023/09/18 07:23:31;;;;;;;12.23;11.73;;;;;;;;;;5085010;28;20024;-68
2023/09/18 07:25:57;;;;;;;12.20;11.70;;;;;;;;;;5106797;28;20104;-66
2023/09/18 07:28:23;;;;;;;12.23;11.73;;;;;;;;;;5108404;28;20034;-68
2023/09/18 07:30:49;;;;;;;12.18;11.68;;;;;;;;;;5105252;28;20016;-67
2023/09/18 07:33:19;;;;;;;12.27;11.77;;;;;;;;;;5106759;27;20051;-67
2023/09/18 07:35:47;;;;;;;12.75;12.15;;;;;;;;;;5106178;28;20802;-67
2023/09/18 07:38:12;;;;;;;12.48;11.90;;;;;;;;;;5101571;28;20059;-67
2023/09/18 07:40:37;;;;;;;12.25;11.75;;;;;;;;;;5104792;27;20051;-67
2023/09/18 07:43:03;;;;;;;12.03;11.53;;;;;;;;;;5108479;27;20027;-66
2023/09/18 07:45:28;;;;;;;12.25;11.75;;;;;;;;;;5102935;28;20065;-67
2023/09/18 07:47:53;;;;;;;12.07;11.57;;;;;;;;;;5100830;28;20035;-68
2023/09/18 07:50:19;;;;;;;12.20;11.70;;;;;;;;;;5101640;27;20284;-66
2023/09/18 07:52:44;;;;;;;11.90;11.40;;;;;;;;;;5087837;28;20080;-67
2023/09/18 07:55:10;;;;;;;12.00;11.50;;;;;;;;;;5105482;28;20026;-66
2023/09/18 07:57:37;;;;;;;12.00;11.50;;;;;;;;;;5107333;28;20256;-67
2023/09/18 08:00:12;;;;;;;12.10;11.55;;;;;;;;;;5105258;28;20388;-66
2023/09/18 08:02:38;;;;;;;11.98;11.48;;;;;;;;;;5088289;28;20428;-66
2023/09/18 08:05:04;;;;;;;12.20;11.70;;;;;;;;;;5105989;28;20055;-66
2023/09/18 08:07:30;;;;;;;12.15;11.65;;;;;;;;;;5099788;28;20032;-66
2023/09/18 08:09:55;;;;;;;11.98;11.48;;;;;;;;;;5101791;28;20023;-66
2023/09/18 08:12:21;;;;;;;12.00;11.50;;;;;;;;;;5105296;27;20023;-67
2023/09/18 08:14:46;;;;;;;11.90;11.40;;;;;;;;;;5102635;27;20015;-67
2023/09/18 08:17:12;;;;;;;12.15;11.65;;;;;;;;;;5102970;28;20271;-66
2023/09/18 08:19:38;;;;;;;11.88;11.38;;;;;;;;;;5107826;28;20390;-66
2023/09/18 08:22:04;;;;;;;11.98;11.48;;;;;;;;;;5102213;27;20056;-66
2023/09/18 08:24:29;;;;;;;12.10;11.60;;;;;;;;;;5100777;28;20062;-67
2023/09/18 08:26:55;;;;;;;12.05;11.55;;;;;;;;;;5105007;28;20411;-67
2023/09/18 08:29:22;;;;;;;12.20;11.70;;;;;;;;;;5106855;28;20060;-67
2023/09/18 08:31:50;;;;;;;12.05;11.55;;;;;;;;;;5107535;28;20036;-66
2023/09/18 08:34:15;;;;;;;11.93;11.43;;;;;;;;;;5108097;28;20055;-67
2023/09/18 08:36:41;;;;;;;12.60;12.00;;;;;;;;;;5109852;28;20023;-65
2023/09/18 08:39:06;;;;;;;11.82;11.32;;;;;;;;;;5092649;28;20054;-66
2023/09/18 08:41:32;;;;;;;11.63;11.13;;;;;;;;;;5110349;28;20026;-66
2023/09/18 08:43:59;;;;;;;12.00;11.50;;;;;;;;;;5099477;28;20116;-66
2023/09/18 08:46:25;;;;;;;11.45;10.95;;;;;;;;;;5108421;28;20024;-66
2023/09/18 08:48:51;;;;;;;11.75;11.25;;;;;;;;;;5100988;28;20027;-66
2023/09/18 08:51:18;;;;;;;12.00;11.50;;;;;;;;;;5105876;28;20510;-66
2023/09/18 08:53:43;;;;;;;11.52;11.02;;;;;;;;;;5102204;28;20031;-67
2023/09/18 08:56:09;;;;;;;12.18;11.68;;;;;;;;;;5104786;28;20019;-67
2023/09/18 08:58:39;;;;;;;12.55;11.95;;;;;;;;;;5103114;28;20054;-66
2023/09/18 09:01:06;;;;;;;12.48;11.88;;;;;;;;;;5098781;28;20555;-67
2023/09/18 09:03:34;;;;;;;12.07;11.57;;;;;;;;;;5106251;28;20061;-66
2023/09/18 09:06:01;;;;;;;12.02;11.52;;;;;;;;;;5107111;28;20115;-67
2023/09/18 09:08:27;;;;;;;12.30;11.80;;;;;;;;;;5109813;28;20015;-66
2023/09/18 09:10:53;;;;;;;12.50;11.90;;;;;;;;;;5109242;28;20031;-66
2023/09/18 09:13:24;;;;;;;12.50;11.93;;;;;;;;;;5105093;27;20034;-66
2023/09/18 09:15:53;;;;;;;12.63;12.02;;;;;;;;;;5105022;28;20019;-66
2023/09/18 09:18:19;;;;;;;12.00;11.50;;;;;;;;;;5112364;28;20024;-67
2023/09/18 09:20:53;;;;;;;12.43;11.85;;;;;;;;;;5102846;28;20084;-66
2023/09/18 09:23:18;;;;;;;;;;;;;;;;;;5103890;28;20100;-67
2023/09/18 09:25:43;;;;;;;12.37;11.83;;;;;;;;;;5106316;28;20316;-65
2023/09/18 09:28:09;;;;;;;11.83;11.33;;;;;;;;;;5105222;28;20031;-66
2023/09/18 09:30:37;;;;;;;12.43;11.85;;;;;;;;;;5090730;28;20301;-67
2023/09/18 09:33:04;;;;;;;11.75;11.25;;;;;;;;;;5105807;27;20027;-67
2023/09/18 09:35:30;;;;;;;11.88;11.38;;;;;;;;;;5103162;28;20028;-67
2023/09/18 09:37:57;;;;;;;11.68;11.18;;;;;;;;;;5107481;28;20023;-66
2023/09/18 09:40:25;;;;;;;11.70;11.20;;;;;;;;;;5106409;28;20100;-66
2023/09/18 09:42:51;;;;;;;11.80;11.30;;;;;;;;;;5111775;28;20023;-67
2023/09/18 09:45:17;;;;;;;11.90;11.40;;;;;;;;;;5106978;28;20019;-66
2023/09/18 09:47:43;;;;;;;11.52;11.02;;;;;;;;;;5108032;27;20028;-67
2023/09/18 09:50:13;;;;;;;11.75;11.25;;;;;;;;;;5087678;28;20064;-66
2023/09/18 09:52:49;;;;;;;12.05;11.55;;;;;;;;;;5104077;28;20024;-65
2023/09/18 09:55:19;;;;;;;12.05;11.55;;;;;;;;;;5106805;28;20039;-66
2023/09/18 09:57:48;;;;;;;12.45;11.85;;;;;;;;;;5107138;28;20114;-66
2023/09/18 10:00:36;;;;;;;11.48;10.98;;;;;;;;;;5108555;28;20024;-66
2023/09/18 10:03:03;;;;;;;12.43;11.82;;;;;;;;;;5108975;28;20031;-66
2023/09/18 10:05:29;;;;;;;12.10;11.60;;;;;;;;;;5106732;28;20067;-67
2023/09/18 10:07:58;;;;;;;11.60;11.10;;;;;;;;;;5104951;28;20020;-66
2023/09/18 10:10:24;;;;;;;11.85;11.35;;;;;;;;;;5107028;28;20084;-67
2023/09/18 10:12:49;;;;;;;12.55;11.95;;;;;;;;;;5104458;28;20111;-66
2023/09/18 10:15:16;;;;;;;12.50;11.90;;;;;;;;;;5107344;28;20023;-65
2023/09/18 10:17:44;;;;;;;11.85;11.35;;;;;;;;;;5107654;28;20068;-66
2023/09/18 10:20:21;;;;;;;11.88;11.38;;;;;;;;;;5103445;28;20391;-67
2023/09/18 10:22:49;;;;;;;12.00;11.50;;;;;;;;;;5105628;27;20134;-67
2023/09/18 10:25:21;;;;;;;12.13;11.63;;;;;;;;;;5108143;28;20053;-66
2023/09/18 10:27:49;;;;;;;11.55;11.05;;;;;;;;;;5110947;27;20055;-66
2023/09/18 10:30:18;;;;;;;11.60;11.10;;;;;;;;;;5108874;28;20165;-67
2023/09/18 10:32:45;;;;;;;11.40;10.90;;;;;;;;;;5104708;28;20387;-65
2023/09/18 10:35:11;;;;;;;11.70;11.20;;;;;;;;;;5109576;27;20027;-66
2023/09/18 10:37:37;;;;;;;11.70;11.20;;;;;;;;;;5108244;28;20047;-67
2023/09/18 10:40:04;;;;;;;11.88;11.38;;;;;;;;;;5102051;28;20463;-66
2023/09/18 10:42:31;;;;;;;11.70;11.20;;;;;;;;;;5099910;28;20506;-65
2023/09/18 10:44:56;;;;;;;12.10;11.60;;;;;;;;;;5105366;28;20475;-66
2023/09/18 10:47:22;;;;;;;11.93;11.43;;;;;;;;;;5103200;28;20032;-66
2023/09/18 10:49:49;;;;;;;12.20;11.70;;;;;;;;;;5104196;28;20008;-66
2023/09/18 10:52:15;;;;;;;12.20;11.70;;;;;;;;;;5097290;28;20024;-67
2023/09/18 10:54:40;;;;;;;11.70;11.20;;;;;;;;;;5108373;28;20026;-66
2023/09/18 10:57:06;;;;;;;11.70;11.20;;;;;;;;;;5107709;28;20043;-67
2023/09/18 10:59:31;;;;;;;11.82;11.32;;;;;;;;;;5106048;28;20019;-66
2023/09/18 11:02:02;;;;;;;11.85;11.35;;;;;;;;;;5106860;27;20023;-66
2023/09/18 11:04:28;;;;;;;11.50;11.00;;;;;;;;;;5103517;28;20023;-65
2023/09/18 11:06:54;;;;;;;11.77;11.27;;;;;;;;;;5107045;28;20194;-67
2023/09/18 11:09:23;;;;;;;11.80;11.30;;;;;;;;;;5105898;27;20061;-66
2023/09/18 11:12:08;;;;;;;11.55;11.05;;;;;;;;;;5109648;28;20505;-66
2023/09/18 11:14:56;;;;;;;11.57;11.07;;;;;;;;;;5104872;28;20098;-66
2023/09/18 11:17:31;;;;;;;11.73;11.23;;;;;;;;;;5105233;28;20023;-67
2023/09/18 11:20:15;;;;;;;11.80;11.30;;;;;;;;;;5103687;27;20027;-66
2023/09/18 11:22:46;;;;;;;12.02;11.52;;;;;;;;;;5104845;28;22268;-66
2023/09/18 11:25:31;;;;;;;11.75;11.25;;;;;;;;;;5105413;28;20432;-66
2023/09/18 11:27:56;;;;;;;11.68;11.18;;;;;;;;;;5109203;28;20032;-66
2023/09/18 11:30:22;;;;;;;12.07;11.57;;;;;;;;;;5107226;28;20016;-67
2023/09/18 11:32:47;;;;;;;11.75;11.25;;;;;;;;;;5100661;28;20095;-67
2023/09/18 11:35:13;;;;;;;11.85;11.35;;;;;;;;;;5105996;28;20077;-67
2023/09/18 11:37:39;;;;;;;11.73;11.23;;;;;;;;;;5105682;28;20031;-67
2023/09/18 11:40:08;;;;;;;11.95;11.45;;;;;;;;;;5109367;27;20107;-67
2023/09/18 11:42:33;;;;;;;11.35;10.85;;;;;;;;;;5108635;27;20094;-66
2023/09/18 11:44:59;;;;;;;12.07;11.57;;;;;;;;;;5104021;28;20166;-66
2023/09/18 11:47:26;;;;;;;11.63;11.13;;;;;;;;;;5104537;28;20122;-66
2023/09/18 11:49:55;;;;;;;11.65;11.15;;;;;;;;;;5102405;28;20027;-66
2023/09/18 11:52:21;;;;;;;11.70;11.20;;;;;;;;;;5101690;28;20020;-66
2023/09/18 11:54:47;;;;;;;11.73;11.23;;;;;;;;;;5106932;28;20020;-66
2023/09/18 11:57:13;;;;;;;11.98;11.48;;;;;;;;;;5109148;28;20050;-66
2023/09/18 11:59:41;;;;;;;11.80;11.30;;;;;;;;;;5104485;28;20382;-66
2023/09/18 12:02:07;;;;;;;11.65;11.15;;;;;;;;;;5102536;28;20107;-66
2023/09/18 12:04:33;;;;;;;11.80;11.30;;;;;;;;;;5103388;28;20035;-66
2023/09/18 12:06:59;;;;;;;11.80;11.30;;;;;;;;;;5102176;27;20043;-66
2023/09/18 12:09:26;;;;;;;11.48;10.98;;;;;;;;;;5105413;28;20019;-67
2023/09/18 12:11:55;;;;;;;11.55;11.05;;;;;;;;;;5107712;28;20054;-67
2023/09/18 12:14:21;;;;;;;11.68;11.18;;;;;;;;;;5103624;28;20012;-66
2023/09/18 12:16:49;;;;;;;11.52;11.02;;;;;;;;;;5101234;28;20019;-66
2023/09/18 12:19:18;;;;;;;11.63;11.13;;;;;;;;;;5105352;28;20020;-65
2023/09/18 12:21:46;;;;;;;11.60;11.10;;;;;;;;;;5104862;28;20022;-67
2023/09/18 12:24:15;;;;;;;11.45;10.95;;;;;;;;;;5104095;28;20095;-68
2023/09/18 12:26:41;;;;;;;11.50;11.00;;;;;;;;;;5104944;28;20015;-66
2023/09/18 12:29:10;;;;;;;11.48;10.98;;;;;;;;;;5104541;28;20379;-66
2023/09/18 12:31:35;;;;;;;11.40;10.90;;;;;;;;;;5107962;28;20023;-67
2023/09/18 12:34:01;;;;;;;11.50;11.00;;;;;;;;;;5103475;28;20048;-65
2023/09/18 12:36:27;;;;;;;11.77;11.27;;;;;;;;;;5088025;28;20386;-67
2023/09/18 12:38:56;;;;;;;12.13;11.63;;;;;;;;;;5107432;28;20068;-66
2023/09/18 12:41:22;;;;;;;11.70;11.20;;;;;;;;;;5106461;28;20027;-66
2023/09/18 12:43:47;;;;;;;11.82;11.32;;;;;;;;;;5107120;28;20020;-66
2023/09/18 12:46:13;;;;;;;11.70;11.20;;;;;;;;;;5108161;28;20423;-66
2023/09/18 12:48:45;;;;;;;11.60;11.10;;;;;;;;;;5107980;28;20016;-67
2023/09/18 12:51:10;;;;;;;11.68;11.18;;;;;;;;;;5105011;28;20027;-67
2023/09/18 12:53:35;;;;;;;11.50;11.00;;;;;;;;;;5106992;28;20016;-66
2023/09/18 12:56:05;;;;;;;11.70;11.20;;;;;;;;;;5108507;28;20573;-67
2023/09/18 12:58:30;;;;;;;11.73;11.23;;;;;;;;;;5102293;28;20613;-67
2023/09/18 13:00:56;;;;;;;11.80;11.30;;;;;;;;;;5106611;28;20107;-67
2023/09/18 13:03:22;;;;;;;12.07;11.57;;;;;;;;;;5106937;27;20020;-67
2023/09/18 13:05:49;;;;;;;12.10;11.60;;;;;;;;;;5106819;28;20399;-67
2023/09/18 13:08:14;;;;;;;11.52;11.02;;;;;;;;;;5111487;28;20061;-67
2023/09/18 13:10:47;;;;;;;11.50;11.00;;;;;;;;;;5110517;28;20567;-67
2023/09/18 13:13:16;;;;;;;11.68;11.18;;;;;;;;;;5089237;28;20513;-67
2023/09/18 13:15:42;;;;;;;11.52;11.02;;;;;;;;;;5105274;28;20035;-66
2023/09/18 13:18:11;;;;;;;11.65;11.15;;;;;;;;;;5108413;28;20023;-66
2023/09/18 13:20:36;;;;;;;12.70;12.10;;;;;;;;;;5106178;27;20024;-66
2023/09/18 13:23:04;;;;;;;11.60;11.10;;;;;;;;;;5107784;27;20031;-67
2023/09/18 13:25:33;;;;;;;11.70;11.20;;;;;;;;;;5106647;27;20028;-67
2023/09/18 13:27:59;;;;;;;11.38;10.88;;;;;;;;;;5109359;28;20103;-67
2023/09/18 13:30:25;;;;;;;11.63;11.13;;;;;;;;;;5107189;27;20583;-68
2023/09/18 13:32:50;;;;;;;11.27;10.77;;;;;;;;;;5108288;28;20496;-67
2023/09/18 13:35:16;;;;;;;11.48;10.98;;;;;;;;;;5107013;28;20403;-66
2023/09/18 13:37:42;;;;;;;11.30;10.80;;;;;;;;;;5108823;28;21905;-67
2023/09/18 13:40:11;;;;;;;11.55;11.05;;;;;;;;;;5108001;28;20030;-66
2023/09/18 13:42:36;;;;;;;11.65;11.15;;;;;;;;;;5088923;28;20060;-67
2023/09/18 13:45:08;;;;;;;11.90;11.40;;;;;;;;;;5104328;28;20086;-68
2023/09/18 13:47:34;;;;;;;11.43;10.93;;;;;;;;;;5104616;27;20035;-66
2023/09/18 13:50:00;;;;;;;11.60;11.10;;;;;;;;;;5106632;27;20075;-66
2023/09/18 13:52:26;;;;;;;11.95;11.45;;;;;;;;;;5103531;27;20466;-68
2023/09/18 13:54:52;;;;;;;11.60;11.10;;;;;;;;;;5110562;28;20035;-67
2023/09/18 13:57:20;;;;;;;11.65;11.15;;;;;;;;;;5104568;28;20027;-68
2023/09/18 13:59:46;;;;;;;11.57;11.07;;;;;;;;;;5109284;28;20020;-66
2023/09/18 14:02:15;;;;;;;11.73;11.23;;;;;;;;;;5107569;27;20539;-67
2023/09/18 14:04:41;;;;;;;11.27;10.77;;;;;;;;;;5101222;28;20032;-67
2023/09/18 14:07:07;;;;;;;11.60;11.10;;;;;;;;;;5085026;28;20048;-66
2023/09/18 14:09:32;;;;;;;12.10;11.60;;;;;;;;;;5083349;28;20024;-67
2023/09/18 14:11:57;;;;;;;11.30;10.80;;;;;;;;;;5085389;28;20452;-66
2023/09/18 14:14:23;;;;;;;11.60;11.10;;;;;;;;;;5085865;28;20065;-66